sensor_id;sensor_type;location;lat;lon;timestamp;pressure;altitude;pressure_sealevel;temperature;humidity
27425;BME280;15244;49.088;11.886;2023-02-10T00:04:03;97446.16;;;1.24;43.96
27425;BME280;15244;49.088;11.886;2023-02-10T00:09:12;97457.50;;;1.16;44.45
27425;BME280;15244;49.088;11.886;2023-02-10T00:14:25;97458.63;;;1.10;44.09
27425;BME280;15244;49.088;11.886;2023-02-10T00:19:28;97460.03;;;1.02;44.26
27425;BME280;15244;49.088;11.886;2023-02-10T00:24:41;97469.19;;;0.96;44.08
27425;BME280;15244;49.088;11.886;2023-02-10T00:29:50;97469.78;;;0.88;43.91
27425;BME280;15244;49.088;11.886;2023-02-10T00:34:54;97473.59;;;0.81;43.89
27425;BME280;15244;49.088;11.886;2023-02-10T00:40:00;97467.41;;;0.76;44.11
27425;BME280;15244;49.088;11.886;2023-02-10T00:45:02;97485.44;;;0.70;44.13
27425;BME280;15244;49.088;11.886;2023-02-10T00:50:04;97480.09;;;0.65;44.37
27425;BME280;15244;49.088;11.886;2023-02-10T00:55:06;97475.56;;;0.60;44.16
27425;BME280;15244;49.088;11.886;2023-02-10T01:00:11;97468.34;;;0.56;44.06
27425;BME280;15244;49.088;11.886;2023-02-10T01:05:13;97482.06;;;0.49;44.51
27425;BME280;15244;49.088;11.886;2023-02-10T01:10:22;97464.63;;;0.47;44.46
27425;BME280;15244;49.088;11.886;2023-02-10T01:15:28;97459.81;;;0.43;44.14
27425;BME280;15244;49.088;11.886;2023-02-10T01:20:36;97461.97;;;0.41;44.72
27425;BME280;15244;49.088;11.886;2023-02-10T01:25:44;97462.00;;;0.36;44.57
27425;BME280;15244;49.088;11.886;2023-02-10T01:30:46;97459.31;;;0.36;45.36
27425;BME280;15244;49.088;11.886;2023-02-10T01:35:49;97461.72;;;0.33;44.97
27425;BME280;15244;49.088;11.886;2023-02-10T01:40:53;97462.56;;;0.28;45.27
27425;BME280;15244;49.088;11.886;2023-02-10T01:45:59;97451.84;;;0.23;45.46
27425;BME280;15244;49.088;11.886;2023-02-10T01:51:19;97456.94;;;0.19;45.20
27425;BME280;15244;49.088;11.886;2023-02-10T01:56:23;97466.88;;;0.19;45.26
27425;BME280;15244;49.088;11.886;2023-02-10T02:01:27;97470.91;;;0.16;45.21
27425;BME280;15244;49.088;11.886;2023-02-10T02:06:36;97466.38;;;0.12;45.35
27425;BME280;15244;49.088;11.886;2023-02-10T02:12:03;97464.00;;;0.05;45.51
27425;BME280;15244;49.088;11.886;2023-02-10T02:17:25;97454.59;;;-0.03;45.89
27425;BME280;15244;49.088;11.886;2023-02-10T02:28:43;97469.66;;;-0.12;45.78
27425;BME280;15244;49.088;11.886;2023-02-10T02:34:22;97485.47;;;-0.15;46.22
27425;BME280;15244;49.088;11.886;2023-02-10T02:39:27;97477.72;;;-0.17;45.96
27425;BME280;15244;49.088;11.886;2023-02-10T02:44:29;97488.13;;;-0.15;46.11
27425;BME280;15244;49.088;11.886;2023-02-10T02:49:38;97502.09;;;-0.13;46.28
27425;BME280;15244;49.088;11.886;2023-02-10T02:54:57;97509.56;;;-0.10;46.74
27425;BME280;15244;49.088;11.886;2023-02-10T03:00:05;97506.88;;;-0.05;46.95
27425;BME280;15244;49.088;11.886;2023-02-10T03:05:10;97511.19;;;0.01;46.55
27425;BME280;15244;49.088;11.886;2023-02-10T03:10:14;97509.84;;;0.04;46.69
27425;BME280;15244;49.088;11.886;2023-02-10T03:15:30;97502.88;;;0.03;46.58
27425;BME280;15244;49.088;11.886;2023-02-10T03:20:34;97504.50;;;-0.02;45.87
27425;BME280;15244;49.088;11.886;2023-02-10T03:25:39;97502.34;;;-0.05;46.43
27425;BME280;15244;49.088;11.886;2023-02-10T03:30:43;97511.19;;;-0.09;46.05
27425;BME280;15244;49.088;11.886;2023-02-10T03:35:50;97518.97;;;-0.13;46.19
27425;BME280;15244;49.088;11.886;2023-02-10T03:40:55;97525.16;;;-0.17;46.15
27425;BME280;15244;49.088;11.886;2023-02-10T03:46:04;97525.69;;;-0.20;45.93
27425;BME280;15244;49.088;11.886;2023-02-10T03:51:06;97530.53;;;-0.23;46.01
27425;BME280;15244;49.088;11.886;2023-02-10T03:56:09;97531.88;;;-0.25;46.14
27425;BME280;15244;49.088;11.886;2023-02-10T04:01:15;97540.44;;;-0.28;46.05
27425;BME280;15244;49.088;11.886;2023-02-10T04:06:17;97552.50;;;-0.36;45.95
27425;BME280;15244;49.088;11.886;2023-02-10T04:11:26;97560.28;;;-0.39;46.13
27425;BME280;15244;49.088;11.886;2023-02-10T04:16:36;97559.47;;;-0.45;46.32
27425;BME280;15244;49.088;11.886;2023-02-10T04:21:40;97555.72;;;-0.49;45.99
27425;BME280;15244;49.088;11.886;2023-02-10T04:26:52;97539.63;;;-0.49;46.28
27425;BME280;15244;49.088;11.886;2023-02-10T04:31:56;97539.63;;;-0.54;45.99
27425;BME280;15244;49.088;11.886;2023-02-10T04:36:57;97554.91;;;-0.60;46.08
27425;BME280;15244;49.088;11.886;2023-02-10T04:42:00;97548.47;;;-0.64;46.24
27425;BME280;15244;49.088;11.886;2023-02-10T04:47:06;97544.44;;;-0.67;46.25
27425;BME280;15244;49.088;11.886;2023-02-10T04:52:08;97545.78;;;-0.69;46.12
27425;BME280;15244;49.088;11.886;2023-02-10T04:57:24;97548.19;;;-0.68;46.37
27425;BME280;15244;49.088;11.886;2023-02-10T05:02:27;97560.78;;;-0.68;46.96
27425;BME280;15244;49.088;11.886;2023-02-10T05:07:29;97573.34;;;-0.69;46.88
27425;BME280;15244;49.088;11.886;2023-02-10T05:12:34;97572.03;;;-0.66;46.67
27425;BME280;15244;49.088;11.886;2023-02-10T05:17:45;97575.25;;;-0.64;47.21
27425;BME280;15244;49.088;11.886;2023-02-10T05:22:53;97574.72;;;-0.61;46.90
27425;BME280;15244;49.088;11.886;2023-02-10T05:27:56;97580.06;;;-0.61;47.19
27425;BME280;15244;49.088;11.886;2023-02-10T05:33:02;97584.09;;;-0.58;47.45
27425;BME280;15244;49.088;11.886;2023-02-10T05:38:04;97585.44;;;-0.56;46.93
27425;BME280;15244;49.088;11.886;2023-02-10T05:43:10;97591.06;;;-0.52;47.22
27425;BME280;15244;49.088;11.886;2023-02-10T05:48:18;97591.06;;;-0.52;47.24
27425;BME280;15244;49.088;11.886;2023-02-10T05:53:23;97600.16;;;-0.53;47.08
27425;BME280;15244;49.088;11.886;2023-02-10T05:58:26;97598.03;;;-0.56;47.63
27425;BME280;15244;49.088;11.886;2023-02-10T06:03:37;97613.31;;;-0.57;47.33
27425;BME280;15244;49.088;11.886;2023-02-10T06:08:41;97621.34;;;-0.57;47.55
27425;BME280;15244;49.088;11.886;2023-02-10T06:13:51;97624.56;;;-0.55;47.28
27425;BME280;15244;49.088;11.886;2023-02-10T06:18:53;97630.47;;;-0.53;47.37
27425;BME280;15244;49.088;11.886;2023-02-10T06:23:59;97640.66;;;-0.50;47.10
27425;BME280;15244;49.088;11.886;2023-02-10T06:29:07;97645.72;;;-0.48;47.41
27425;BME280;15244;49.088;11.886;2023-02-10T06:34:11;97651.09;;;-0.48;47.01
27425;BME280;15244;49.088;11.886;2023-02-10T06:39:14;97647.34;;;-0.52;46.69
27425;BME280;15244;49.088;11.886;2023-02-10T06:44:18;97638.22;;;-0.56;46.50
27425;BME280;15244;49.088;11.886;2023-02-10T06:49:25;97653.47;;;-0.62;46.55
27425;BME280;15244;49.088;11.886;2023-02-10T06:54:27;97652.13;;;-0.64;46.73
27425;BME280;15244;49.088;11.886;2023-02-10T06:59:35;97659.91;;;-0.63;47.06
27425;BME280;15244;49.088;11.886;2023-02-10T07:04:44;97672.22;;;-0.62;46.67
27425;BME280;15244;49.088;11.886;2023-02-10T07:09:45;97681.63;;;-0.59;47.03
27425;BME280;15244;49.088;11.886;2023-02-10T07:14:55;97695.56;;;-0.57;46.98
27425;BME280;15244;49.088;11.886;2023-02-10T07:20:03;97700.94;;;-0.52;47.16
27425;BME280;15244;49.088;11.886;2023-02-10T07:25:09;97698.28;;;-0.47;47.31
27425;BME280;15244;49.088;11.886;2023-02-10T07:30:15;97700.72;;;-0.40;47.31
27425;BME280;15244;49.088;11.886;2023-02-10T07:35:27;97700.44;;;-0.39;47.45
27425;BME280;15244;49.088;11.886;2023-02-10T07:40:45;97703.09;;;-0.39;47.47
27425;BME280;15244;49.088;11.886;2023-02-10T07:45:49;97705.25;;;-0.36;47.27
27425;BME280;15244;49.088;11.886;2023-02-10T07:50:53;97696.44;;;-0.31;47.61
27425;BME280;15244;49.088;11.886;2023-02-10T07:56:00;97698.06;;;-0.20;47.23
27425;BME280;15244;49.088;11.886;2023-02-10T08:01:09;97691.38;;;-0.07;47.88
27425;BME280;15244;49.088;11.886;2023-02-10T08:06:19;97696.47;;;0.05;47.84
27425;BME280;15244;49.088;11.886;2023-02-10T08:11:33;97694.63;;;0.15;47.26
27425;BME280;15244;49.088;11.886;2023-02-10T08:16:40;97705.06;;;0.22;47.32
27425;BME280;15244;49.088;11.886;2023-02-10T08:21:46;97704.53;;;0.30;47.32
27425;BME280;15244;49.088;11.886;2023-02-10T08:26:49;97712.88;;;0.39;47.14
27425;BME280;15244;49.088;11.886;2023-02-10T08:31:58;97720.91;;;0.49;47.36
27425;BME280;15244;49.088;11.886;2023-02-10T08:36:59;97729.22;;;0.63;47.58
27425;BME280;15244;49.088;11.886;2023-02-10T08:42:08;97735.41;;;0.74;47.41
27425;BME280;15244;49.088;11.886;2023-02-10T08:47:12;97740.22;;;0.82;47.77
27425;BME280;15244;49.088;11.886;2023-02-10T08:52:19;97743.13;;;0.91;47.45
27425;BME280;15244;49.088;11.886;2023-02-10T08:57:24;97744.22;;;1.00;47.45
27425;BME280;15244;49.088;11.886;2023-02-10T09:02:38;97752.78;;;1.07;47.11
27425;BME280;15244;49.088;11.886;2023-02-10T09:07:40;97761.91;;;1.11;47.15
27425;BME280;15244;49.088;11.886;2023-02-10T09:12:44;97769.69;;;1.18;47.07
27425;BME280;15244;49.088;11.886;2023-02-10T09:17:46;97758.66;;;1.24;47.30
27425;BME280;15244;49.088;11.886;2023-02-10T09:22:52;97760.22;;;1.36;47.41
27425;BME280;15244;49.088;11.886;2023-02-10T09:27:54;97754.00;;;1.50;47.27
27425;BME280;15244;49.088;11.886;2023-02-10T09:32:59;97753.41;;;1.64;47.29
27425;BME280;15244;49.088;11.886;2023-02-10T09:38:12;97759.28;;;1.71;46.93
27425;BME280;15244;49.088;11.886;2023-02-10T09:43:24;97760.59;;;1.79;47.29
27425;BME280;15244;49.088;11.886;2023-02-10T09:54:17;97742.25;;;1.91;46.99
27425;BME280;15244;49.088;11.886;2023-02-10T09:59:27;97743.25;;;2.05;47.54
27425;BME280;15244;49.088;11.886;2023-02-10T10:04:39;97734.00;;;2.16;47.05
27425;BME280;15244;49.088;11.886;2023-02-10T10:10:20;97744.66;;;2.32;47.18
27425;BME280;15244;49.088;11.886;2023-02-10T10:15:32;97747.59;;;2.41;47.18
27425;BME280;15244;49.088;11.886;2023-02-10T10:20:51;97747.50;;;2.51;47.22
27425;BME280;15244;49.088;11.886;2023-02-10T10:26:04;97749.59;;;2.59;47.31
27425;BME280;15244;49.088;11.886;2023-02-10T10:31:23;97745.72;;;2.70;47.04
27425;BME280;15244;49.088;11.886;2023-02-10T10:36:36;97750.69;;;2.87;47.21
27425;BME280;15244;49.088;11.886;2023-02-10T10:41:38;97750.59;;;2.97;47.02
27425;BME280;15244;49.088;11.886;2023-02-10T10:46:59;97742.91;;;3.10;46.69
27425;BME280;15244;49.088;11.886;2023-02-10T10:52:32;97731.44;;;3.23;46.89
27425;BME280;15244;49.088;11.886;2023-02-10T10:57:39;97736.66;;;3.38;46.73
27425;BME280;15244;49.088;11.886;2023-02-10T11:02:58;97725.69;;;3.54;46.51
27425;BME280;15244;49.088;11.886;2023-02-10T11:08:05;97718.78;;;3.66;46.59
27425;BME280;15244;49.088;11.886;2023-02-10T11:13:31;97712.69;;;3.80;46.14
27425;BME280;15244;49.088;11.886;2023-02-10T11:18:53;97708.97;;;3.95;46.14
27425;BME280;15244;49.088;11.886;2023-02-10T11:23:57;97708.47;;;4.11;45.78
27425;BME280;15244;49.088;11.886;2023-02-10T11:29:12;97704.94;;;4.30;45.78
27425;BME280;15244;49.088;11.886;2023-02-10T11:39:35;97697.25;;;4.56;45.21
27425;BME280;15244;49.088;11.886;2023-02-10T11:44:42;97703.34;;;4.62;45.06
27425;BME280;15244;49.088;11.886;2023-02-10T11:49:48;97692.88;;;4.74;44.50
27425;BME280;15244;49.088;11.886;2023-02-10T11:54:59;97693.69;;;4.88;44.99
27425;BME280;15244;49.088;11.886;2023-02-10T12:00:14;97699.31;;;5.06;45.13
27425;BME280;15244;49.088;11.886;2023-02-10T12:05:46;97701.22;;;5.19;44.63
27425;BME280;15244;49.088;11.886;2023-02-10T12:10:57;97691.13;;;5.25;44.21
27425;BME280;15244;49.088;11.886;2023-02-10T12:16:18;97685.03;;;5.33;43.90
27425;BME280;15244;49.088;11.886;2023-02-10T12:22:00;97677.38;;;5.49;44.47
27425;BME280;15244;49.088;11.886;2023-02-10T12:27:19;97674.28;;;5.55;44.15
27425;BME280;15244;49.088;11.886;2023-02-10T12:32:50;97665.94;;;5.65;43.55
27425;BME280;15244;49.088;11.886;2023-02-10T12:43:31;97667.19;;;5.82;43.24
27425;BME280;15244;49.088;11.886;2023-02-10T12:49:14;97661.38;;;5.89;42.82
27425;BME280;15244;49.088;11.886;2023-02-10T12:54:32;97653.44;;;5.92;42.63
27425;BME280;15244;49.088;11.886;2023-02-10T13:00:10;97653.06;;;5.99;42.99
27425;BME280;15244;49.088;11.886;2023-02-10T13:05:42;97641.81;;;6.05;42.63
27425;BME280;15244;49.088;11.886;2023-02-10T13:10:48;97647.28;;;6.14;42.44
27425;BME280;15244;49.088;11.886;2023-02-10T13:16:04;97645.56;;;6.18;42.54
27425;BME280;15244;49.088;11.886;2023-02-10T13:21:24;97638.91;;;6.24;42.64
27425;BME280;15244;49.088;11.886;2023-02-10T13:26:45;97639.09;;;6.28;42.41
27425;BME280;15244;49.088;11.886;2023-02-10T13:37:56;97617.47;;;6.37;42.28
27425;BME280;15244;49.088;11.886;2023-02-10T13:43:04;97623.38;;;6.39;42.42
27425;BME280;15244;49.088;11.886;2023-02-10T13:48:21;97620.06;;;6.42;41.63
27425;BME280;15244;49.088;11.886;2023-02-10T13:53:39;97620.59;;;6.53;41.98
27425;BME280;15244;49.088;11.886;2023-02-10T13:58:51;97629.88;;;6.60;41.91
27425;BME280;15244;49.088;11.886;2023-02-10T14:03:58;97628.81;;;6.70;41.45
27425;BME280;15244;49.088;11.886;2023-02-10T14:09:21;97631.13;;;6.85;42.02
27425;BME280;15244;49.088;11.886;2023-02-10T14:14:31;97630.19;;;6.90;41.64
27425;BME280;15244;49.088;11.886;2023-02-10T14:19:36;97620.00;;;6.95;41.56
27425;BME280;15244;49.088;11.886;2023-02-10T14:24:43;97624.47;;;7.00;41.66
27425;BME280;15244;49.088;11.886;2023-02-10T14:29:59;97624.50;;;7.09;41.56
27425;BME280;15244;49.088;11.886;2023-02-10T14:35:20;97618.00;;;7.19;41.57
27425;BME280;15244;49.088;11.886;2023-02-10T14:40:36;97617.69;;;7.29;41.37
27425;BME280;15244;49.088;11.886;2023-02-10T14:45:38;97625.69;;;7.34;40.88
27425;BME280;15244;49.088;11.886;2023-02-10T14:50:44;97624.59;;;7.35;40.68
27425;BME280;15244;49.088;11.886;2023-02-10T14:55:57;97622.06;;;7.47;40.59
27425;BME280;15244;49.088;11.886;2023-02-10T15:01:25;97624.47;;;7.57;40.29
27425;BME280;15244;49.088;11.886;2023-02-10T15:06:38;97630.25;;;7.65;40.25
27425;BME280;15244;49.088;11.886;2023-02-10T15:11:49;97625.44;;;7.70;39.92
27425;BME280;15244;49.088;11.886;2023-02-10T15:17:15;97627.53;;;7.73;39.73
27425;BME280;15244;49.088;11.886;2023-02-10T15:22:34;97630.56;;;7.80;39.81
27425;BME280;15244;49.088;11.886;2023-02-10T15:27:42;97638.72;;;7.80;39.70
27425;BME280;15244;49.088;11.886;2023-02-10T15:32:53;97639.50;;;7.81;38.83
27425;BME280;15244;49.088;11.886;2023-02-10T15:38:00;97646.06;;;7.80;39.24
27425;BME280;15244;49.088;11.886;2023-02-10T15:43:21;97643.00;;;7.81;38.79
27425;BME280;15244;49.088;11.886;2023-02-10T15:48:29;97642.53;;;7.79;38.20
27425;BME280;15244;49.088;11.886;2023-02-10T15:53:44;97644.78;;;7.77;38.31
27425;BME280;15244;49.088;11.886;2023-02-10T15:58:46;97642.06;;;7.77;37.98
27425;BME280;15244;49.088;11.886;2023-02-10T16:03:48;97636.78;;;7.72;37.83
27425;BME280;15244;49.088;11.886;2023-02-10T16:08:52;97641.88;;;7.65;37.80
27425;BME280;15244;49.088;11.886;2023-02-10T16:13:57;97645.38;;;7.57;37.58
27425;BME280;15244;49.088;11.886;2023-02-10T16:18:59;97642.78;;;7.43;37.78
27425;BME280;15244;49.088;11.886;2023-02-10T16:24:21;97644.22;;;7.32;37.79
27425;BME280;15244;49.088;11.886;2023-02-10T16:29:29;97640.63;;;7.14;37.41
27425;BME280;15244;49.088;11.886;2023-02-10T16:35:02;97646.81;;;6.97;37.64
27425;BME280;15244;49.088;11.886;2023-02-10T16:40:07;97644.00;;;6.80;37.84
27425;BME280;15244;49.088;11.886;2023-02-10T16:45:12;97649.84;;;6.64;37.87
27425;BME280;15244;49.088;11.886;2023-02-10T16:50:20;97651.50;;;6.51;37.87
27425;BME280;15244;49.088;11.886;2023-02-10T16:55:32;97646.97;;;6.38;38.54
27425;BME280;15244;49.088;11.886;2023-02-10T17:00:38;97650.53;;;6.25;38.40
27425;BME280;15244;49.088;11.886;2023-02-10T17:05:45;97651.09;;;6.13;38.46
27425;BME280;15244;49.088;11.886;2023-02-10T17:10:47;97661.34;;;6.02;38.37
27425;BME280;15244;49.088;11.886;2023-02-10T17:15:52;97662.38;;;5.93;39.07
27425;BME280;15244;49.088;11.886;2023-02-10T17:20:55;97662.59;;;5.82;38.97
27425;BME280;15244;49.088;11.886;2023-02-10T17:26:01;97672.84;;;5.72;39.23
27425;BME280;15244;49.088;11.886;2023-02-10T17:31:06;97676.78;;;5.65;39.61
27425;BME280;15244;49.088;11.886;2023-02-10T17:36:14;97679.88;;;5.59;39.65
27425;BME280;15244;49.088;11.886;2023-02-10T17:41:40;97679.97;;;5.54;40.01
27425;BME280;15244;49.088;11.886;2023-02-10T17:46:52;97679.28;;;5.48;39.71
27425;BME280;15244;49.088;11.886;2023-02-10T17:51:58;97687.34;;;5.39;39.47
27425;BME280;15244;49.088;11.886;2023-02-10T17:57:04;97683.91;;;5.34;39.81
27425;BME280;15244;49.088;11.886;2023-02-10T18:02:13;97673.19;;;5.29;40.46
27425;BME280;15244;49.088;11.886;2023-02-10T18:07:21;97673.00;;;5.25;40.37
27425;BME280;15244;49.088;11.886;2023-02-10T18:12:39;97683.41;;;5.18;40.28
27425;BME280;15244;49.088;11.886;2023-02-10T18:17:46;97667.56;;;5.11;41.03
27425;BME280;15244;49.088;11.886;2023-02-10T18:22:51;97682.03;;;5.07;40.54
27425;BME280;15244;49.088;11.886;2023-02-10T18:28:16;97680.00;;;4.98;41.00
27425;BME280;15244;49.088;11.886;2023-02-10T18:33:28;97696.00;;;4.95;41.29
27425;BME280;15244;49.088;11.886;2023-02-10T18:38:33;97701.22;;;4.91;40.87
27425;BME280;15244;49.088;11.886;2023-02-10T18:43:34;97692.91;;;4.88;41.19
27425;BME280;15244;49.088;11.886;2023-02-10T18:48:41;97682.41;;;4.86;41.29
27425;BME280;15244;49.088;11.886;2023-02-10T18:53:43;97686.19;;;4.85;41.51
27425;BME280;15244;49.088;11.886;2023-02-10T18:58:47;97694.28;;;4.85;41.19
27425;BME280;15244;49.088;11.886;2023-02-10T19:03:49;97688.38;;;4.83;41.20
27425;BME280;15244;49.088;11.886;2023-02-10T19:08:54;97694.09;;;4.82;41.21
27425;BME280;15244;49.088;11.886;2023-02-10T19:13:56;97698.72;;;4.81;41.28
27425;BME280;15244;49.088;11.886;2023-02-10T19:19:02;97702.28;;;4.76;41.26
27425;BME280;15244;49.088;11.886;2023-02-10T19:24:04;97701.00;;;4.74;41.20
27425;BME280;15244;49.088;11.886;2023-02-10T19:29:08;97692.16;;;4.68;41.15
27425;BME280;15244;49.088;11.886;2023-02-10T19:34:14;97696.84;;;4.63;41.63
27425;BME280;15244;49.088;11.886;2023-02-10T19:39:15;97709.03;;;4.60;41.52
27425;BME280;15244;49.088;11.886;2023-02-10T19:44:35;97717.16;;;4.60;41.67
27425;BME280;15244;49.088;11.886;2023-02-10T19:49:42;97713.66;;;4.60;41.35
27425;BME280;15244;49.088;11.886;2023-02-10T19:54:43;97714.44;;;4.60;41.74
27425;BME280;15244;49.088;11.886;2023-02-10T19:59:54;97700.94;;;4.60;41.69
27425;BME280;15244;49.088;11.886;2023-02-10T20:04:58;97700.16;;;4.60;41.67
27425;BME280;15244;49.088;11.886;2023-02-10T20:10:04;97677.03;;;4.53;42.13
27425;BME280;15244;49.088;11.886;2023-02-10T20:15:06;97684.31;;;4.53;42.01
27425;BME280;15244;49.088;11.886;2023-02-10T20:20:09;97683.22;;;4.54;42.06
27425;BME280;15244;49.088;11.886;2023-02-10T20:25:18;97663.22;;;4.55;41.93
27425;BME280;15244;49.088;11.886;2023-02-10T20:30:25;97659.19;;;4.52;41.76
27425;BME280;15244;49.088;11.886;2023-02-10T20:35:46;97660.09;;;4.48;42.74
27425;BME280;15244;49.088;11.886;2023-02-10T20:40:56;97662.59;;;4.44;42.50
27425;BME280;15244;49.088;11.886;2023-02-10T20:45:58;97653.97;;;4.42;42.42
27425;BME280;15244;49.088;11.886;2023-02-10T20:51:06;97650.47;;;4.42;42.20
27425;BME280;15244;49.088;11.886;2023-02-10T20:56:12;97658.06;;;4.40;42.28
27425;BME280;15244;49.088;11.886;2023-02-10T21:01:17;97646.28;;;4.36;42.38
27425;BME280;15244;49.088;11.886;2023-02-10T21:06:22;97651.44;;;4.32;42.42
27425;BME280;15244;49.088;11.886;2023-02-10T21:11:39;97655.81;;;4.28;42.55
27425;BME280;15244;49.088;11.886;2023-02-10T21:16:40;97637.00;;;4.23;42.80
27425;BME280;15244;49.088;11.886;2023-02-10T21:21:50;97644.63;;;4.21;42.32
27425;BME280;15244;49.088;11.886;2023-02-10T21:26:55;97627.13;;;4.18;42.50
27425;BME280;15244;49.088;11.886;2023-02-10T21:31:58;97632.78;;;4.17;42.31
27425;BME280;15244;49.088;11.886;2023-02-10T21:37:06;97623.09;;;4.16;42.72
27425;BME280;15244;49.088;11.886;2023-02-10T21:42:10;97623.19;;;4.10;42.81
27425;BME280;15244;49.088;11.886;2023-02-10T21:47:16;97616.78;;;4.06;42.77
27425;BME280;15244;49.088;11.886;2023-02-10T21:52:22;97623.03;;;4.02;42.54
27425;BME280;15244;49.088;11.886;2023-02-10T21:57:24;97614.50;;;3.95;42.53
27425;BME280;15244;49.088;11.886;2023-02-10T22:02:28;97620.31;;;3.88;42.76
27425;BME280;15244;49.088;11.886;2023-02-10T22:07:36;97608.28;;;3.80;42.80
27425;BME280;15244;49.088;11.886;2023-02-10T22:12:46;97620.53;;;3.73;42.80
27425;BME280;15244;49.088;11.886;2023-02-10T22:17:54;97626.28;;;3.66;42.85
27425;BME280;15244;49.088;11.886;2023-02-10T22:23:10;97626.28;;;3.66;43.45
27425;BME280;15244;49.088;11.886;2023-02-10T22:28:14;97625.50;;;3.65;43.36
27425;BME280;15244;49.088;11.886;2023-02-10T22:33:17;97628.97;;;3.66;43.52
27425;BME280;15244;49.088;11.886;2023-02-10T22:38:23;97634.09;;;3.67;43.31
27425;BME280;15244;49.088;11.886;2023-02-10T22:43:31;97633.00;;;3.68;43.33
27425;BME280;15244;49.088;11.886;2023-02-10T22:48:37;97626.50;;;3.69;43.47
27425;BME280;15244;49.088;11.886;2023-02-10T22:53:46;97633.59;;;3.65;43.47
27425;BME280;15244;49.088;11.886;2023-02-10T22:58:48;97632.28;;;3.63;43.69
27425;BME280;15244;49.088;11.886;2023-02-10T23:03:53;97637.94;;;3.61;43.70
27425;BME280;15244;49.088;11.886;2023-02-10T23:08:57;97633.34;;;3.62;43.40
27425;BME280;15244;49.088;11.886;2023-02-10T23:13:59;97629.06;;;3.61;43.95
27425;BME280;15244;49.088;11.886;2023-02-10T23:19:05;97624.75;;;3.60;43.89
27425;BME280;15244;49.088;11.886;2023-02-10T23:24:09;97620.44;;;3.59;43.72
27425;BME280;15244;49.088;11.886;2023-02-10T23:29:11;97614.53;;;3.57;43.79
27425;BME280;15244;49.088;11.886;2023-02-10T23:34:21;97623.72;;;3.56;44.00
27425;BME280;15244;49.088;11.886;2023-02-10T23:39:23;97610.03;;;3.52;43.98
27425;BME280;15244;49.088;11.886;2023-02-10T23:44:27;97615.19;;;3.48;43.98
27425;BME280;15244;49.088;11.886;2023-02-10T23:49:46;97617.38;;;3.46;43.83
27425;BME280;15244;49.088;11.886;2023-02-10T23:54:47;97605.88;;;3.41;44.04
27425;BME280;15244;49.088;11.886;2023-02-10T23:59:54;97618.63;;;3.35;43.80
